Terminal Aerodrome Forecast
Issued by NWS

Current Version | Previous Version | Text Only | Print | Product List | Glossary Off
Versions: 1 2 3 4 5 6 7 8 9 10 11 12 13 14 15 16 17

000
FTUS41 KILN 221120
TAFLUK
TAF
KLUK 221120Z 2212/2312 VRB03KT P6SM BKN140
     FM221500 23008KT P6SM VCTS BKN060CB
     FM221800 24011G21KT P6SM SHRA BKN045
      TEMPO 2218/2222 4SM TSRA OVC025CB
     FM222300 29008KT P6SM BKN040
     FM230700 35007KT P6SM SCT250=

USA.gov is the U.S. government's official web portal to all federal, state and local government web resources and services.